Terminal Aerodrome Forecast
Issued by NWS Memphis, TN

Home | Current Version | Previous Version | Text Only | Print | Product List | Glossary On
Versions: 1 2 3 4 5 6 7 8 9 10 11 12 13 14 15 16 17 18 19 20 21 22 23 24 25 26 27 28 29 30
000
FTUS44 KMEG 310850 AAA
TAFMEM
TAF AMD
KMEM 310850Z 3109/0106 04006KT P6SM VCSH BKN060 OVC250
     FM311000 VRB02KT P6SM SCT120 BKN250
     FM311400 15007KT P6SM VCTS SCT050CB BKN120
     FM010000 17005KT P6SM VCTS BKN050CB=

USA.gov is the U.S. government's official web portal to all federal, state and local government web resources and services.